TAF Text Data
IDs:
Format:
Raw Decoded Include METAR

Data at: 2054 UTC 01 Oct 2022

VVDN 012030Z 00000KT 9999 FEW015 25/24 Q1009 NOSIG

TAF VVDN 011700Z 0118/0218 20005KT 9999 FEW015 SCT060
  TEMPO 0121/0124 4500 SHRA SCT013 FEW015CB BKN060
  BECMG 0204/0205 10010KT
  TEMPO 0210/0213 4000 TSRA SCT013 FEW015CB BKN050
  BECMG 0213/0214 20005KT